Time;durP1;ratioP1;P1;durP2;ratioP2;P2;SDS_P1;SDS_P2;PMS_P1;PMS_P2;Temp;Humidity;BMP_temperature;BMP_pressure;BME280_temperature;BME280_humidity;BME280_pressure;Samples;Min_cycle;Max_cycle;Signal;HPM_P1;HPM_P2
2024/01/02 00:00:41;;;;;;;9.07;2.40;;;;;;;4.65;100.00;97618.66;6105360;19;20257;-72
2024/01/02 00:02:41;;;;;;;9.52;1.90;;;;;;;4.61;100.00;97604.09;6105025;19;23604;-72
2024/01/02 00:04:42;;;;;;;7.32;2.17;;;;;;;4.62;100.00;97608.41;6104726;19;20049;-72
2024/01/02 00:06:42;;;;;;;8.02;1.85;;;;;;;4.60;100.00;97593.50;6105245;19;20377;-72
2024/01/02 00:08:42;;;;;;;6.30;1.83;;;;;;;4.60;100.00;97594.28;6104504;19;20006;-72
2024/01/02 00:10:43;;;;;;;5.13;2.53;;;;;;;4.59;100.00;97598.19;6105267;19;20006;-72
2024/01/02 00:12:43;;;;;;;6.82;1.58;;;;;;;4.59;100.00;97595.44;6104025;19;20513;-72
2024/01/02 00:14:43;;;;;;;10.25;1.73;;;;;;;4.59;100.00;97592.69;6105809;19;20030;-72
2024/01/02 00:16:44;;;;;;;6.03;1.92;;;;;;;4.57;100.00;97588.75;6105931;19;20003;-72
2024/01/02 00:18:44;;;;;;;11.73;1.95;;;;;;;4.59;100.00;97587.22;6103813;19;20730;-72
2024/01/02 00:20:45;;;;;;;5.03;1.98;;;;;;;4.63;100.00;97588.06;6105801;19;20017;-72
2024/01/02 00:22:45;;;;;;;9.43;2.13;;;;;;;4.64;100.00;97578.72;6104275;19;20007;-72
2024/01/02 00:24:45;;;;;;;7.45;2.30;;;;;;;4.63;100.00;97585.34;6103833;19;20480;-72
2024/01/02 00:26:46;;;;;;;3.65;1.67;;;;;;;4.62;100.00;97580.22;6104085;19;20333;-72
2024/01/02 00:28:46;;;;;;;8.30;2.03;;;;;;;4.64;100.00;97583.41;6104843;19;20329;-72
2024/01/02 00:30:46;;;;;;;4.75;1.67;;;;;;;4.62;100.00;97582.97;6104012;19;20478;-72
2024/01/02 00:32:47;;;;;;;3.83;1.73;;;;;;;4.58;100.00;97573.88;6104720;19;19998;-72
2024/01/02 00:34:48;;;;;;;8.77;2.13;;;;;;;4.56;100.00;97577.00;6104462;19;20482;-72
2024/01/02 00:36:48;;;;;;;11.98;2.30;;;;;;;4.57;100.00;97577.78;6102589;19;20075;-72
2024/01/02 00:38:48;;;;;;;5.72;1.80;;;;;;;4.58;100.00;97568.41;6105217;19;20074;-72
2024/01/02 00:40:50;;;;;;;4.57;2.08;;;;;;;4.55;100.00;97569.09;6104686;19;20766;-72
2024/01/02 00:42:50;;;;;;;5.70;2.20;;;;;;;4.50;100.00;97557.31;6104104;19;20002;-72
2024/01/02 00:44:51;;;;;;;9.50;2.13;;;;;;;4.53;100.00;97558.53;6104161;19;20393;-72
2024/01/02 00:46:51;;;;;;;2.10;1.38;;;;;;;4.53;100.00;97558.53;6101005;19;20550;-72
2024/01/02 00:48:51;;;;;;;5.68;2.13;;;;;;;4.50;100.00;97549.09;6100295;19;20002;-72
2024/01/02 00:50:51;;;;;;;10.45;2.47;;;;;;;4.47;100.00;97540.81;6096711;19;20444;-72
2024/01/02 00:52:52;;;;;;;4.90;1.77;;;;;;;4.49;100.00;97550.25;6094560;19;20007;-72
2024/01/02 00:54:52;;;;;;;9.15;2.53;;;;;;;4.50;100.00;97551.03;6093770;19;20003;-72
2024/01/02 00:56:52;;;;;;;12.73;3.85;;;;;;;4.53;100.00;97549.50;6095009;19;20014;-72
2024/01/02 00:58:53;;;;;;;11.07;3.00;;;;;;;4.51;100.00;97544.41;6095896;19;20022;-72
2024/01/02 01:00:53;;;;;;;16.40;5.40;;;;;;;4.51;100.00;97556.16;6095975;19;21367;-72
2024/01/02 01:02:54;;;;;;;14.68;4.03;;;;;;;4.50;100.00;97540.06;6094452;19;20310;-72
2024/01/02 01:04:54;;;;;;;9.98;3.65;;;;;;;4.50;100.00;97542.81;6094831;19;20398;-72
2024/01/02 01:06:54;;;;;;;10.52;3.22;;;;;;;4.48;100.00;97539.66;6095882;19;20002;-72
2024/01/02 01:08:54;;;;;;;19.88;4.47;;;;;;;4.47;100.00;97535.31;6094536;19;20001;-72
2024/01/02 01:10:56;;;;;;;16.23;4.53;;;;;;;4.47;100.00;97536.13;6095781;19;20510;-72
2024/01/02 01:12:56;;;;;;;10.95;4.05;;;;;;;4.49;100.00;97539.28;6094174;19;20365;-72
2024/01/02 01:14:56;;;;;;;13.30;3.97;;;;;;;4.50;100.00;97527.16;6095747;19;20029;-72
2024/01/02 01:16:57;;;;;;;20.30;4.68;;;;;;;4.48;100.00;97534.16;6093900;19;20005;-72
2024/01/02 01:18:58;;;;;;;10.98;5.57;;;;;;;4.46;100.00;97536.44;6093934;19;20003;-72
2024/01/02 01:20:58;;;;;;;17.75;4.97;;;;;;;4.46;100.00;97531.78;6094803;19;20343;-72
2024/01/02 01:22:58;;;;;;;21.33;5.35;;;;;;;4.43;100.00;97524.28;6093504;19;20013;-72
2024/01/02 01:24:58;;;;;;;17.80;4.70;;;;;;;4.41;100.00;97521.13;6093804;19;20005;-72
2024/01/02 01:26:59;;;;;;;13.95;4.43;;;;;;;4.38;100.00;97508.13;6096293;19;20003;-72
2024/01/02 01:28:59;;;;;;;14.15;4.70;;;;;;;4.40;100.00;97508.59;6096143;19;20266;-72
2024/01/02 01:30:59;;;;;;;12.00;4.00;;;;;;;4.38;100.00;97494.44;6096139;19;20462;-72
2024/01/02 01:33:00;;;;;;;13.63;4.22;;;;;;;4.36;100.00;97488.53;6096015;19;20023;-72
2024/01/02 01:35:00;;;;;;;8.70;3.50;;;;;;;4.34;100.00;97492.78;6096146;19;20452;-72
2024/01/02 01:37:00;;;;;;;4.50;2.90;;;;;;;4.33;100.00;97493.94;6096115;19;20008;-72
2024/01/02 01:39:01;;;;;;;10.55;3.60;;;;;;;4.33;100.00;97489.25;6095508;19;19999;-72
2024/01/02 01:41:01;;;;;;;5.05;2.38;;;;;;;4.30;100.00;97492.72;6097358;19;20734;-72
2024/01/02 01:43:02;;;;;;;3.83;1.52;;;;;;;4.30;100.00;97489.19;6097011;19;20110;-72
2024/01/02 01:45:02;;;;;;;2.58;1.48;;;;;;;4.33;100.00;97481.06;6095577;19;19999;-72
2024/01/02 01:47:04;;;;;;;5.07;2.00;;;;;;;4.29;100.00;97473.91;6095559;19;20007;-72
2024/01/02 01:49:08;;;;;;;6.38;2.53;;;;;;;4.29;100.00;97468.44;6099913;19;20020;-72
2024/01/02 01:51:09;;;;;;;2.60;1.50;;;;;;;4.26;100.00;97463.69;6110744;19;20006;-72
2024/01/02 01:53:10;;;;;;;5.70;2.03;;;;;;;4.26;100.00;97469.16;6108911;19;20013;-72
2024/01/02 01:55:11;;;;;;;4.68;2.03;;;;;;;4.23;100.00;97459.72;6110547;19;20041;-72
2024/01/02 01:57:13;;;;;;;2.22;1.23;;;;;;;4.25;100.00;97462.09;6109926;19;20007;-72
2024/01/02 01:59:14;;;;;;;2.45;1.10;;;;;;;4.22;100.00;97460.88;6108397;19;20017;-72
2024/01/02 02:01:15;;;;;;;3.03;1.20;;;;;;;4.20;100.00;97453.00;6110216;19;20491;-72
2024/01/02 02:03:16;;;;;;;3.10;1.08;;;;;;;4.15;100.00;97463.47;6109166;19;20082;-72
2024/01/02 02:05:17;;;;;;;1.90;1.05;;;;;;;4.12;100.00;97462.22;6109631;19;20018;-72
2024/01/02 02:07:18;;;;;;;1.48;0.85;;;;;;;4.13;100.00;97449.34;6109404;19;20011;-72
2024/01/02 02:09:18;;;;;;;1.35;0.90;;;;;;;4.14;100.00;97448.22;6109365;19;20013;-72
2024/01/02 02:11:20;;;;;;;1.33;0.80;;;;;;;4.16;100.00;97451.38;6109658;19;20010;-72
2024/01/02 02:13:21;;;;;;;2.53;1.02;;;;;;;4.18;100.00;97446.31;6108387;19;20014;-72
2024/01/02 02:15:21;;;;;;;1.45;1.17;;;;;;;4.22;100.00;97439.78;6110212;19;20016;-72
2024/01/02 02:17:22;;;;;;;3.25;1.08;;;;;;;4.27;100.00;97448.84;6109000;19;20371;-72
2024/01/02 02:19:23;;;;;;;2.78;1.00;;;;;;;4.26;100.00;97445.31;6109460;19;20369;-72
2024/01/02 02:21:25;;;;;;;2.13;1.20;;;;;;;4.31;100.00;97442.28;6109810;19;20007;-72
2024/01/02 02:23:25;;;;;;;2.80;1.63;;;;;;;4.29;100.00;97438.31;6108239;19;20256;-72
2024/01/02 02:25:27;;;;;;;1.38;0.95;;;;;;;4.29;100.00;97422.66;6109992;19;20102;-72
2024/01/02 02:27:27;;;;;;;1.70;1.02;;;;;;;4.29;100.00;97417.19;6108259;19;20003;-72
2024/01/02 02:29:27;;;;;;;4.00;1.10;;;;;;;4.24;100.00;97412.03;6108464;19;20354;-72
2024/01/02 02:31:28;;;;;;;2.17;1.25;;;;;;;4.22;100.00;97411.59;6109222;19;20329;-72
2024/01/02 02:33:29;;;;;;;2.20;0.90;;;;;;;4.23;100.00;97408.50;6108394;19;20023;-72
2024/01/02 02:35:30;;;;;;;1.10;0.90;;;;;;;4.25;100.00;97401.88;6108557;19;20074;-72
2024/01/02 02:37:31;;;;;;;1.30;0.85;;;;;;;4.27;100.00;97396.81;6108677;19;20053;-72
2024/01/02 02:39:31;;;;;;;1.33;0.98;;;;;;;4.28;100.00;97398.41;6108772;19;20070;-72
2024/01/02 02:41:31;;;;;;;4.88;1.23;;;;;;;4.24;100.00;97390.13;6108720;19;20011;-72
2024/01/02 02:43:32;;;;;;;4.57;1.40;;;;;;;4.22;100.00;97393.22;6108077;19;20463;-72
2024/01/02 02:45:34;;;;;;;2.33;1.02;;;;;;;4.15;100.00;97373.94;6108500;19;20010;-72
2024/01/02 02:47:34;;;;;;;2.50;0.90;;;;;;;4.18;100.00;97375.94;6108976;19;20011;-72
2024/01/02 02:49:34;;;;;;;1.42;0.95;;;;;;;4.15;100.00;97368.44;6107944;19;20013;-72
2024/01/02 02:51:34;;;;;;;3.83;1.02;;;;;;;4.18;100.00;97367.72;6108936;19;20802;-72
2024/01/02 02:53:35;;;;;;;1.17;0.73;;;;;;;4.20;100.00;97353.66;6106708;19;20032;-72
2024/01/02 02:55:35;;;;;;;1.50;1.00;;;;;;;4.23;100.00;97344.75;6108316;19;20492;-72
2024/01/02 02:57:35;;;;;;;0.68;0.68;;;;;;;4.26;100.00;97348.69;6108722;19;20400;-72
2024/01/02 02:59:36;;;;;;;1.55;1.10;;;;;;;4.23;100.00;97340.06;6108728;19;20017;-72
2024/01/02 03:01:36;;;;;;;1.83;0.85;;;;;;;4.26;100.00;97335.00;6108993;19;19998;-72
2024/01/02 03:03:36;;;;;;;3.70;1.13;;;;;;;4.23;100.00;97331.06;6107713;19;20030;-72
2024/01/02 03:05:36;;;;;;;1.75;0.90;;;;;;;4.25;100.00;97320.50;6108909;19;20347;-72
2024/01/02 03:07:37;;;;;;;4.40;1.17;;;;;;;4.26;100.00;97311.16;6108304;19;20007;-72
2024/01/02 03:09:37;;;;;;;2.10;1.00;;;;;;;4.23;100.00;97300.94;6108466;19;20006;-72
2024/01/02 03:11:38;;;;;;;2.00;1.10;;;;;;;4.23;100.00;97296.25;6107409;19;20332;-72
2024/01/02 03:13:38;;;;;;;3.30;1.02;;;;;;;4.20;100.00;97290.69;6108250;19;20478;-72
2024/01/02 03:15:38;;;;;;;3.13;1.45;;;;;;;4.27;100.00;97285.34;6107876;19;20099;-72
2024/01/02 03:17:39;;;;;;;4.28;2.15;;;;;;;4.21;100.00;97279.38;6108786;19;20010;-72
2024/01/02 03:19:39;;;;;;;5.00;2.13;;;;;;;4.22;100.00;97270.03;6107738;19;20078;-72
2024/01/02 03:21:39;;;;;;;7.07;2.55;;;;;;;4.25;100.00;97265.75;6108519;19;20173;-72
2024/01/02 03:23:40;;;;;;;5.15;1.67;;;;;;;4.26;100.00;97256.38;6107104;19;20074;-72
2024/01/02 03:25:40;;;;;;;2.70;1.27;;;;;;;4.34;100.00;97262.78;6108544;19;20013;-72
2024/01/02 03:27:41;;;;;;;2.67;1.58;;;;;;;4.35;100.00;97256.91;6108522;19;20102;-72
2024/01/02 03:29:41;;;;;;;3.50;1.33;;;;;;;4.38;100.00;97249.91;6107855;19;20331;-72
2024/01/02 03:31:41;;;;;;;2.95;1.92;;;;;;;4.33;100.00;97250.25;6108765;19;20006;-72
2024/01/02 03:33:42;;;;;;;2.83;1.25;;;;;;;4.35;100.00;97236.97;6106809;19;20106;-72
2024/01/02 03:35:42;;;;;;;1.95;1.10;;;;;;;4.41;100.00;97224.56;6107207;19;20106;-72
2024/01/02 03:37:43;;;;;;;4.53;1.35;;;;;;;4.48;100.00;97228.19;6107172;19;20416;-72
2024/01/02 03:39:43;;;;;;;6.63;1.10;;;;;;;4.50;100.00;97217.66;6107838;19;20015;-72
2024/01/02 03:41:43;;;;;;;2.13;1.20;;;;;;;4.49;100.00;97223.50;6108209;19;20011;-72
2024/01/02 03:43:44;;;;;;;3.03;1.10;;;;;;;4.50;100.00;97206.69;6106634;19;20007;-72
2024/01/02 03:45:44;;;;;;;2.75;1.10;;;;;;;4.60;100.00;97204.47;6107827;19;20320;-72
2024/01/02 03:47:44;;;;;;;1.55;1.05;;;;;;;4.60;100.00;97191.56;6107645;19;20011;-72
2024/01/02 03:49:44;;;;;;;2.25;1.65;;;;;;;4.59;100.00;97197.41;6107298;19;20413;-72
2024/01/02 03:51:45;;;;;;;1.98;1.00;;;;;;;4.56;100.00;97185.25;6108510;19;20074;-72
2024/01/02 03:53:45;;;;;;;1.52;1.00;;;;;;;4.61;100.00;97189.63;6106365;19;20329;-72
2024/01/02 03:55:46;;;;;;;3.92;1.08;;;;;;;4.53;100.00;97177.75;6108129;19;20029;-72
2024/01/02 03:57:47;;;;;;;1.05;0.95;;;;;;;4.60;100.00;97179.81;6106696;19;20381;-72
2024/01/02 03:59:48;;;;;;;2.78;1.00;;;;;;;4.63;100.00;97173.59;6107587;19;20006;-72
2024/01/02 04:01:48;;;;;;;1.02;0.80;;;;;;;4.62;100.00;97169.28;6106726;19;20009;-72
2024/01/02 04:03:48;;;;;;;1.92;0.98;;;;;;;4.59;100.00;97178.25;6106433;19;20030;-72
2024/01/02 04:05:49;;;;;;;1.65;1.02;;;;;;;4.56;100.00;97170.78;6107322;19;20006;-72
2024/01/02 04:07:49;;;;;;;1.35;1.10;;;;;;;4.57;100.00;97162.19;6106597;19;20328;-72
2024/01/02 04:09:51;;;;;;;1.40;0.80;;;;;;;4.57;100.00;97161.41;6107191;19;20040;-72
2024/01/02 04:11:52;;;;;;;2.03;1.08;;;;;;;4.53;100.00;97161.34;6107268;19;20364;-72
2024/01/02 04:13:52;;;;;;;1.10;0.85;;;;;;;4.50;100.00;97151.91;6105200;19;20011;-72
2024/01/02 04:15:52;;;;;;;2.30;0.93;;;;;;;4.58;100.00;97141.06;6106039;19;20474;-72
2024/01/02 04:17:53;;;;;;;0.80;0.70;;;;;;;4.60;100.00;97138.72;6106503;19;20018;-72
2024/01/02 04:19:53;;;;;;;3.40;0.80;;;;;;;4.62;100.00;97136.41;6106839;19;20014;-72
2024/01/02 04:21:53;;;;;;;1.20;0.70;;;;;;;4.55;100.00;97133.56;6105357;19;20343;-72
2024/01/02 04:23:53;;;;;;;1.63;0.98;;;;;;;4.52;100.00;97126.88;6108974;19;20007;-72
2024/01/02 04:25:54;;;;;;;2.42;0.60;;;;;;;4.49;100.00;97125.69;6112389;19;20013;-72
2024/01/02 04:27:55;;;;;;;1.48;1.00;;;;;;;4.48;100.00;97102.19;6111641;19;20026;-72
2024/01/02 04:29:56;;;;;;;0.63;0.63;;;;;;;4.49;100.00;97109.25;6111869;19;20027;-72
2024/01/02 04:31:59;;;;;;;2.05;0.70;;;;;;;4.47;100.00;97092.41;6112697;19;20006;-72
2024/01/02 04:33:59;;;;;;;1.25;0.90;;;;;;;4.47;100.00;97097.09;6111108;19;20007;-72
2024/01/02 04:35:59;;;;;;;0.60;0.60;;;;;;;4.41;100.00;97091.16;6111993;19;21233;-72
2024/01/02 04:37:59;;;;;;;0.88;0.88;;;;;;;4.49;100.00;97081.06;6111908;19;20042;-72
2024/01/02 04:40:00;;;;;;;0.93;0.80;;;;;;;4.45;100.00;97081.00;6111560;19;20002;-72
2024/01/02 04:42:01;;;;;;;0.75;0.75;;;;;;;4.44;100.00;97070.44;6110848;19;20007;-72
2024/01/02 04:44:01;;;;;;;2.17;0.80;;;;;;;4.46;100.00;97068.91;6111239;19;20003;-72
2024/01/02 04:46:01;;;;;;;1.38;0.70;;;;;;;4.44;100.00;97063.00;6109387;19;20003;-72
2024/01/02 04:48:02;;;;;;;1.23;0.90;;;;;;;4.45;100.00;97053.63;6111040;19;19999;-72
2024/01/02 04:50:04;;;;;;;0.80;0.80;;;;;;;4.47;100.00;97050.53;6099822;19;20474;-72
2024/01/02 04:52:04;;;;;;;1.10;1.00;;;;;;;4.48;100.00;97044.69;6110968;19;20010;-72
2024/01/02 04:54:04;;;;;;;3.40;0.90;;;;;;;4.48;100.00;97039.22;6111325;19;20013;-72
2024/01/02 04:56:05;;;;;;;0.60;0.60;;;;;;;4.48;100.00;97036.47;6110975;19;20007;-72
2024/01/02 04:58:05;;;;;;;0.98;0.88;;;;;;;4.45;100.00;97026.25;6106904;19;20089;-72
2024/01/02 05:00:06;;;;;;;1.10;0.85;;;;;;;4.45;100.00;97023.50;6111659;19;20038;-72
2024/01/02 05:02:06;;;;;;;0.70;0.70;;;;;;;4.43;100.00;97011.34;6110024;19;19998;-72
2024/01/02 05:04:07;;;;;;;2.28;0.82;;;;;;;4.34;100.00;97000.69;6110469;19;20017;-72
2024/01/02 05:06:07;;;;;;;2.65;0.70;;;;;;;4.30;100.00;97010.78;6111438;19;20307;-72
2024/01/02 05:08:08;;;;;;;0.60;0.60;;;;;;;4.30;100.00;96988.09;6109012;19;20010;-72
2024/01/02 05:10:08;;;;;;;1.90;0.65;;;;;;;4.32;100.00;96992.06;6110682;19;20003;-72
2024/01/02 05:12:08;;;;;;;1.17;0.60;;;;;;;4.30;100.00;96999.84;6108229;19;20462;-72
2024/01/02 05:14:09;;;;;;;0.60;0.50;;;;;;;4.31;100.00;97001.44;6110515;19;20030;-72
2024/01/02 05:16:10;;;;;;;0.60;0.60;;;;;;;4.41;100.00;96970.66;6109254;19;20478;-72
2024/01/02 05:18:10;;;;;;;1.80;0.60;;;;;;;4.30;100.00;96964.25;6110284;19;20006;-72
2024/01/02 05:20:11;;;;;;;0.60;0.60;;;;;;;4.29;100.00;96965.41;6111113;19;20007;-72
2024/01/02 05:22:11;;;;;;;0.60;0.60;;;;;;;4.30;100.00;96964.25;6109707;19;20110;-72
2024/01/02 05:24:11;;;;;;;1.67;0.60;;;;;;;4.25;100.00;96966.53;6110341;19;20002;-72
2024/01/02 05:26:11;;;;;;;0.98;0.70;;;;;;;4.21;100.00;96950.84;6108863;19;19999;-72
2024/01/02 05:28:12;;;;;;;2.13;0.68;;;;;;;4.30;100.00;96953.28;6110343;19;20009;-72
2024/01/02 05:30:13;;;;;;;0.60;0.60;;;;;;;4.36;100.00;96946.34;6110414;19;20003;-72
2024/01/02 05:32:13;;;;;;;0.43;0.43;;;;;;;4.40;100.00;96938.16;6109353;19;20093;-72
2024/01/02 05:34:13;;;;;;;1.52;0.60;;;;;;;4.33;100.00;96940.81;6109429;19;19994;-72
2024/01/02 05:36:14;;;;;;;0.60;0.60;;;;;;;4.38;100.00;96937.72;6107591;19;20467;-72
2024/01/02 05:38:14;;;;;;;0.70;0.70;;;;;;;4.31;100.00;96927.53;6110950;19;20336;-72
2024/01/02 05:40:14;;;;;;;1.83;0.60;;;;;;;4.30;100.00;96925.91;6109244;19;20020;-72
2024/01/02 05:42:15;;;;;;;1.25;0.60;;;;;;;4.20;100.00;96921.13;6109638;19;19995;-72
2024/01/02 05:44:15;;;;;;;0.50;0.50;;;;;;;4.23;100.00;96917.66;6109891;19;20034;-72
2024/01/02 05:46:15;;;;;;;1.85;0.60;;;;;;;4.19;100.00;96927.75;6110740;19;19994;-72
2024/01/02 05:48:15;;;;;;;0.60;0.60;;;;;;;4.23;100.00;96912.19;6107365;19;20761;-72
2024/01/02 05:50:16;;;;;;;0.60;0.60;;;;;;;4.25;100.00;96925.47;6095934;19;20048;-72
2024/01/02 05:52:17;;;;;;;1.75;0.60;;;;;;;4.18;100.00;96917.97;6094483;19;20023;-72
2024/01/02 05:54:17;;;;;;;0.82;0.60;;;;;;;4.12;100.00;96911.25;6094883;19;20082;-72
2024/01/02 05:56:17;;;;;;;0.50;0.50;;;;;;;4.13;100.00;96910.88;6100970;19;20345;-72
2024/01/02 05:58:18;;;;;;;0.50;0.50;;;;;;;4.10;100.00;96911.63;6102386;19;20007;-72
2024/01/02 06:00:18;;;;;;;0.50;0.50;;;;;;;4.09;100.00;96901.84;6102052;19;20006;-72
2024/01/02 06:02:18;;;;;;;1.85;0.60;;;;;;;4.14;100.00;96900.72;6099847;19;19999;-72
2024/01/02 06:04:19;;;;;;;0.60;0.60;;;;;;;4.10;100.00;96891.69;6101514;19;20493;-72
2024/01/02 06:06:19;;;;;;;0.60;0.60;;;;;;;4.07;100.00;96898.69;6101738;19;20101;-72
2024/01/02 06:08:21;;;;;;;0.55;0.55;;;;;;;4.05;100.00;96890.06;6101138;19;19999;-72
2024/01/02 06:10:21;;;;;;;0.50;0.50;;;;;;;4.03;100.00;96875.97;6101837;19;20033;-72
2024/01/02 06:12:21;;;;;;;0.50;0.50;;;;;;;3.97;100.00;96880.19;6101810;19;20463;-72
2024/01/02 06:14:23;;;;;;;0.50;0.50;;;;;;;3.98;100.00;96870.06;6100464;19;20102;-72
2024/01/02 06:16:23;;;;;;;0.40;0.40;;;;;;;4.04;100.00;96876.75;6094976;19;20078;-72
2024/01/02 06:18:23;;;;;;;0.43;0.43;;;;;;;4.12;100.00;96870.19;6095050;19;20040;-72
2024/01/02 06:20:24;;;;;;;0.52;0.52;;;;;;;4.08;100.00;96867.44;6094719;19;20471;-72
2024/01/02 06:22:24;;;;;;;0.50;0.50;;;;;;;4.03;100.00;96861.50;6093697;19;20466;-72
2024/01/02 06:24:24;;;;;;;1.15;0.50;;;;;;;4.05;100.00;96870.88;6093381;19;20009;-72
2024/01/02 06:26:25;;;;;;;0.40;0.40;;;;;;;3.98;100.00;96848.94;6093684;19;20010;-72
2024/01/02 06:28:25;;;;;;;0.40;0.40;;;;;;;4.02;100.00;96849.75;6094507;19;20039;-72
2024/01/02 06:30:25;;;;;;;0.65;0.43;;;;;;;4.05;100.00;96856.41;6094375;19;20081;-72
2024/01/02 06:32:26;;;;;;;0.50;0.50;;;;;;;3.97;100.00;96850.06;6094331;19;20391;-72
2024/01/02 06:34:27;;;;;;;0.50;0.50;;;;;;;3.93;100.00;96836.38;6094743;19;20492;-72
2024/01/02 06:36:27;;;;;;;0.40;0.40;;;;;;;4.02;100.00;96841.53;6094355;19;20021;-72
2024/01/02 06:38:27;;;;;;;0.50;0.50;;;;;;;3.98;100.00;96834.47;6092583;19;20265;-72
2024/01/02 06:40:28;;;;;;;0.40;0.40;;;;;;;4.04;100.00;96833.75;6094485;19;19999;-72
2024/01/02 06:42:28;;;;;;;0.45;0.45;;;;;;;4.09;100.00;96832.63;6093880;19;20006;-72
2024/01/02 06:44:28;;;;;;;0.75;0.75;;;;;;;4.13;100.00;96819.75;6094348;19;20012;-72
2024/01/02 06:46:29;;;;;;;2.15;0.70;;;;;;;4.06;100.00;96811.50;6092229;19;20058;-72
2024/01/02 06:48:29;;;;;;;1.15;0.70;;;;;;;4.06;100.00;96804.06;6093271;19;20014;-72
2024/01/02 06:50:30;;;;;;;0.60;0.60;;;;;;;4.14;100.00;96808.47;6106025;19;20062;-72
2024/01/02 06:52:30;;;;;;;2.50;0.60;;;;;;;4.09;100.00;96806.03;6106489;19;20044;-72
2024/01/02 06:54:30;;;;;;;0.82;0.50;;;;;;;4.05;100.00;96820.84;6107108;19;20006;-72
2024/01/02 06:56:30;;;;;;;0.50;0.50;;;;;;;4.13;100.00;96806.06;6106842;19;20340;-72
2024/01/02 06:58:31;;;;;;;0.50;0.50;;;;;;;4.16;100.00;96800.66;6107233;19;20039;-72
2024/01/02 07:00:32;;;;;;;0.50;0.50;;;;;;;4.07;100.00;96793.91;6108288;19;20481;-72
2024/01/02 07:02:33;;;;;;;0.60;0.50;;;;;;;4.03;100.00;96784.88;6106764;19;20010;-72
2024/01/02 07:04:36;;;;;;;1.65;0.50;;;;;;;4.05;100.00;96780.56;6108556;19;20010;-72
2024/01/02 07:06:36;;;;;;;0.45;0.45;;;;;;;4.00;100.00;96786.41;6107914;19;20284;-72
2024/01/02 07:08:36;;;;;;;0.50;0.50;;;;;;;3.90;100.00;96779.69;6108570;19;20019;-72
2024/01/02 07:10:37;;;;;;;0.50;0.50;;;;;;;3.84;100.00;96788.59;6108149;19;20082;-72
2024/01/02 07:12:37;;;;;;;0.47;0.47;;;;;;;3.81;100.00;96792.09;6107244;19;20010;-72
2024/01/02 07:14:37;;;;;;;0.50;0.50;;;;;;;3.87;100.00;96769.47;6108252;19;20343;-72
2024/01/02 07:16:38;;;;;;;0.40;0.40;;;;;;;3.86;100.00;96767.88;6108214;19;20098;-72
2024/01/02 07:18:38;;;;;;;0.50;0.50;;;;;;;3.91;100.00;96761.31;6107986;19;20317;-72
2024/01/02 07:20:38;;;;;;;0.50;0.50;;;;;;;3.88;100.00;96760.09;6108877;19;20017;-72
2024/01/02 07:22:38;;;;;;;0.63;0.63;;;;;;;3.94;100.00;96757.81;6106141;19;20017;-72
2024/01/02 07:24:39;;;;;;;1.55;0.50;;;;;;;4.02;100.00;96748.50;6107938;19;20442;-72
2024/01/02 07:26:39;;;;;;;0.40;0.40;;;;;;;4.01;100.00;96743.41;6108280;19;20010;-72
2024/01/02 07:28:40;;;;;;;0.52;0.52;;;;;;;3.97;100.00;96746.09;6108037;19;20025;-72
2024/01/02 07:30:40;;;;;;;0.50;0.50;;;;;;;4.02;100.00;96737.56;6108358;19;20035;-72
2024/01/02 07:32:40;;;;;;;0.50;0.50;;;;;;;4.01;100.00;96736.00;6107468;19;20014;-72
2024/01/02 07:34:40;;;;;;;0.90;0.40;;;;;;;4.01;100.00;96719.56;6107360;19;20029;-72
2024/01/02 07:36:41;;;;;;;0.40;0.40;;;;;;;3.98;100.00;96712.13;6106938;19;20034;-72
2024/01/02 07:38:41;;;;;;;0.40;0.40;;;;;;;4.04;100.00;96707.06;6108682;19;20030;-72
2024/01/02 07:40:41;;;;;;;0.50;0.50;;;;;;;3.99;100.00;96721.91;6108104;19;20010;-72
2024/01/02 07:42:42;;;;;;;0.60;0.60;;;;;;;3.95;100.00;96715.59;6106618;19;20344;-72
2024/01/02 07:44:42;;;;;;;0.60;0.60;;;;;;;3.93;100.00;96712.47;6107706;19;20007;-72
2024/01/02 07:46:42;;;;;;;0.60;0.60;;;;;;;3.88;100.00;96710.84;6106887;19;20019;-72
2024/01/02 07:48:43;;;;;;;2.75;0.70;;;;;;;3.88;100.00;96701.84;6103468;19;20470;-72
2024/01/02 07:50:43;;;;;;;0.50;0.50;;;;;;;3.95;100.00;96699.97;6106431;19;20017;-72
2024/01/02 07:52:43;;;;;;;0.50;0.50;;;;;;;3.94;100.00;96697.59;6107014;19;20337;-72
2024/01/02 07:54:44;;;;;;;0.73;0.50;;;;;;;4.00;100.00;96698.84;6108057;19;20336;-72
2024/01/02 07:56:44;;;;;;;1.67;0.60;;;;;;;4.06;100.00;96699.28;6107068;19;20010;-72
2024/01/02 07:58:46;;;;;;;4.47;0.60;;;;;;;4.02;100.00;96693.78;6113023;19;20363;-72
2024/01/02 08:00:47;;;;;;;1.23;0.47;;;;;;;3.99;100.00;96696.50;6113154;19;20010;-72
2024/01/02 08:02:47;;;;;;;2.15;1.70;;;;;;;3.97;100.00;96679.63;6111664;19;20011;-72
2024/01/02 08:04:48;;;;;;;0.98;0.90;;;;;;;3.94;100.00;96668.28;6111409;19;20055;-72
2024/01/02 08:06:48;;;;;;;2.50;0.60;;;;;;;3.96;100.00;96678.84;6112710;19;20011;-72
2024/01/02 08:08:49;;;;;;;0.50;0.50;;;;;;;4.12;100.00;96673.13;6113240;19;20350;-72
2024/01/02 08:10:49;;;;;;;0.40;0.40;;;;;;;4.11;100.00;96674.28;6113542;19;20027;-72
2024/01/02 08:12:49;;;;;;;0.50;0.50;;;;;;;4.09;100.00;96660.22;6112108;19;20022;-72
2024/01/02 08:14:50;;;;;;;0.68;0.50;;;;;;;4.04;100.00;96641.41;6113292;19;20332;-72
2024/01/02 08:16:50;;;;;;;0.57;0.57;;;;;;;4.00;100.00;96637.84;6112666;19;20015;-72
2024/01/02 08:18:51;;;;;;;2.50;1.92;;;;;;;4.01;100.00;96647.63;6113552;19;20015;-72
2024/01/02 08:20:51;;;;;;;0.50;0.50;;;;;;;4.10;100.00;96653.56;6112007;19;20030;-72
2024/01/02 08:22:51;;;;;;;0.60;0.60;;;;;;;4.13;100.00;96645.38;6089177;19;20003;-72
2024/01/02 08:24:52;;;;;;;0.50;0.50;;;;;;;4.23;100.00;96628.25;6110746;19;20027;-72
2024/01/02 08:26:53;;;;;;;1.33;0.70;;;;;;;4.26;100.00;96629.44;6114257;19;20014;-72
2024/01/02 08:28:53;;;;;;;0.60;0.60;;;;;;;4.30;100.00;96630.22;6113705;19;20470;-73
2024/01/02 08:30:53;;;;;;;0.50;0.50;;;;;;;4.32;100.00;96633.41;6112509;19;20066;-72
2024/01/02 08:32:54;;;;;;;0.60;0.60;;;;;;;4.29;100.00;96616.94;6112057;19;20011;-72
2024/01/02 08:34:54;;;;;;;0.50;0.50;;;;;;;4.31;100.00;96626.34;6112594;19;20007;-72
2024/01/02 08:36:54;;;;;;;0.50;0.50;;;;;;;4.27;100.00;96622.78;6108356;19;20314;-72
2024/01/02 08:38:56;;;;;;;0.52;0.52;;;;;;;4.34;100.00;96622.84;6113699;19;20006;-72
2024/01/02 08:40:56;;;;;;;0.60;0.60;;;;;;;4.33;100.00;96621.28;6111793;19;20010;-72
2024/01/02 08:42:57;;;;;;;0.63;0.50;;;;;;;4.37;100.00;96613.84;6111597;19;20006;-72
2024/01/02 08:44:57;;;;;;;0.50;0.50;;;;;;;4.38;100.00;96604.47;6111903;19;20446;-72
2024/01/02 08:46:57;;;;;;;0.60;0.60;;;;;;;4.44;100.00;96597.47;6112421;19;20006;-72
2024/01/02 08:48:58;;;;;;;0.50;0.50;;;;;;;4.50;100.00;96593.19;6111704;19;20026;-72
2024/01/02 08:50:58;;;;;;;3.85;1.42;;;;;;;4.58;100.00;96591.28;6111095;19;20459;-72
2024/01/02 08:52:59;;;;;;;0.82;0.65;;;;;;;4.62;100.00;96599.50;6112680;19;20868;-72
2024/01/02 08:54:59;;;;;;;3.75;2.10;;;;;;;4.63;100.00;96601.06;6112638;19;20015;-72
2024/01/02 08:56:59;;;;;;;3.83;2.10;;;;;;;4.71;100.00;96595.22;6111418;19;20318;-72
2024/01/02 08:59:00;;;;;;;2.42;1.50;;;;;;;4.77;100.00;96596.44;6111435;19;20673;-72
2024/01/02 09:01:01;;;;;;;1.42;0.90;;;;;;;4.86;100.00;96589.81;6113246;19;20023;-72
2024/01/02 09:03:02;;;;;;;1.65;0.98;;;;;;;4.84;100.00;96567.50;6110956;19;20006;-72
2024/01/02 09:05:02;;;;;;;1.35;0.80;;;;;;;4.84;100.00;96575.72;6112330;19;20007;-72
2024/01/02 09:07:03;;;;;;;3.13;2.22;;;;;;;4.90;100.00;96565.97;6112492;19;20006;-72
2024/01/02 09:09:04;;;;;;;1.88;1.17;;;;;;;4.93;100.00;96567.94;6109864;19;20007;-73
2024/01/02 09:11:10;;;;;;;1.90;1.43;;;;;;;4.89;100.00;96564.41;6110882;19;20515;-72
2024/01/02 09:13:11;;;;;;;2.15;1.30;;;;;;;4.90;100.00;96563.22;6105450;19;20007;-72
2024/01/02 09:15:12;;;;;;;1.85;1.40;;;;;;;4.92;100.00;96561.66;6110910;19;20006;-72
2024/01/02 09:17:12;;;;;;;1.05;0.77;;;;;;;4.93;100.00;96556.97;6109733;19;20027;-72
2024/01/02 09:19:12;;;;;;;2.55;0.80;;;;;;;5.01;100.00;96556.59;6103950;19;20081;-72
2024/01/02 09:21:12;;;;;;;1.02;0.93;;;;;;;5.10;100.00;96526.06;6112097;19;20014;-72
2024/01/02 09:23:13;;;;;;;1.63;1.10;;;;;;;5.19;100.00;96555.84;6110745;19;20058;-72
2024/01/02 09:25:16;;;;;;;1.60;1.10;;;;;;;5.34;100.00;96574.66;6111914;19;20015;-72